»·PEaware :: AAL570 KDFW-CYYZ

AAL570 :: KDFW-CYYZ

FLIGHT INFORMATION

Flight Status: Arrived
Operator:
American Airlines
More flights by this operator :: More flights under this callsign
Pilot: Anonymous 14085 (14085)
Aircraft: AIRBUS A320
(A320)
More flights by this aircraft type
Origin: KDFW Dallas-Ft Worth Intl
United States
Destination: CYYZ Toronto/Pearson Intl
Canada
More flights between these airports :: More routes between these airports
Route: AKUNA6 MLC RZC STL BVT CRL QWERI NUBER2
File this flight plan on PilotEdge
Remarks: PBN / A1B1C1D1O1S1 DOF / 171124 REG / N320SB EET / KZME0032 KZKC0046 KZAU0126 KZOB0149 CZYZ0159 KZOB0207 OPR / AAL PER / C RMK / TCAS SIMBRIEF
Altitude:
(Current/Filed)
35,000ft
Speed:
(Current/Filed)
456kts
Departed: 24-Nov-17 11:50 AM
Arrived: 24-Nov-17 02:26 PM
Distance/Time
Traveled:
1040nm/2:36
Distance/Time
To Go:
Arrived

Flight Plot

Page will automatically refresh every two minutes.

Flight plan parsing failed; only flown route is shown


Map Options




Map Legend


Flown Route
Filed Route
Departure Airport
Arrival Airport
Navaid (VOR, NDB)
Fix

Horizontal Profiles

Position Reports

Time Latitude Longitude Heading Altitude Ground
Speed
24-Nov-17 11:40 32.900318 -97.037206 188 615ft 0kts
24-Nov-17 11:41 32.900318 -97.037206 188 615ft 0kts
24-Nov-17 11:42 32.900318 -97.037206 188 615ft 0kts
24-Nov-17 11:43 32.900318 -97.037206 188 615ft 0kts
24-Nov-17 11:44 32.900318 -97.037206 188 615ft 0kts
24-Nov-17 11:45 32.900318 -97.037206 188 615ft 0kts
24-Nov-17 11:46 32.900318 -97.037206 188 615ft 0kts
24-Nov-17 11:47 32.900318 -97.037206 188 615ft 0kts
24-Nov-17 11:48 32.900319 -97.037206 188 615ft 0kts
24-Nov-17 11:49 32.900893 -97.037080 190 615ft 2kts
24-Nov-17 11:50 32.901103 -97.037126 84 615ft 1kts
24-Nov-17 11:51 32.901101 -97.037123 89 615ft 2kts
24-Nov-17 11:52 32.901172 -97.032066 52 615ft 14kts
24-Nov-17 11:53 32.904735 -97.031901 359 615ft 12kts
24-Nov-17 11:54 32.908871 -97.031768 37 615ft 17kts
24-Nov-17 11:55 32.895496 -97.030002 179 753ft 140kts
24-Nov-17 11:56 32.851652 -97.025125 163 3234ft 191kts
24-Nov-17 11:57 32.791993 -96.998394 148 5673ft 256kts
24-Nov-17 11:58 32.765223 -96.921008 90 8819ft 277kts
24-Nov-17 11:59 32.789708 -96.831717 35 10908ft 333kts
24-Nov-17 12:00 32.887212 -96.808771 357 12165ft 387kts
24-Nov-17 12:01 32.994073 -96.809156 355 14556ft 389kts
24-Nov-17 12:02 33.100830 -96.812470 356 16803ft 388kts
24-Nov-17 12:03 33.205243 -96.815650 356 18653ft 393kts
24-Nov-17 12:04 33.314798 -96.818994 355 20460ft 397kts
24-Nov-17 12:05 33.422132 -96.822197 357 22031ft 402kts
24-Nov-17 12:06 33.528059 -96.773724 24 23422ft 420kts
24-Nov-17 12:07 33.631130 -96.707462 24 24786ft 425kts
24-Nov-17 12:08 33.736541 -96.639624 23 26040ft 431kts
24-Nov-17 12:09 33.842039 -96.571562 23 27226ft 435kts
24-Nov-17 12:10 33.948468 -96.502691 23 28308ft 439kts
24-Nov-17 12:11 34.038243 -96.444441 23 29107ft 442kts
24-Nov-17 12:12 34.058406 -96.431014 25 29264ft 445kts
24-Nov-17 12:13 34.156687 -96.352681 28 30409ft 444kts
24-Nov-17 12:14 34.253641 -96.273575 28 31441ft 442kts
24-Nov-17 12:15 34.355373 -96.190313 28 32420ft 441kts
24-Nov-17 12:16 34.456525 -96.107277 28 33300ft 441kts
24-Nov-17 12:17 34.557839 -96.023881 28 33798ft 448kts
24-Nov-17 12:18 34.658593 -95.940642 28 34895ft 438kts
24-Nov-17 12:19 34.758907 -95.857563 28 34961ft 437kts
24-Nov-17 12:20 34.857887 -95.772195 35 34963ft 444kts
24-Nov-17 12:21 34.947595 -95.668380 37 34951ft 446kts
24-Nov-17 12:22 35.036425 -95.564887 37 35000ft 445kts
24-Nov-17 12:23 35.125137 -95.461216 37 35210ft 447kts
24-Nov-17 12:24 35.214973 -95.355886 37 35304ft 448kts
24-Nov-17 12:25 35.304172 -95.250967 37 35287ft 448kts
24-Nov-17 12:26 35.393896 -95.145088 37 35265ft 449kts
24-Nov-17 12:27 35.483429 -95.039090 38 35070ft 450kts
24-Nov-17 12:28 35.573487 -94.932119 38 34922ft 450kts
24-Nov-17 12:29 35.663277 -94.825119 38 34933ft 452kts
24-Nov-17 12:30 35.738419 -94.735300 38 34926ft 454kts
24-Nov-17 12:31 35.828566 -94.627212 38 34945ft 455kts
24-Nov-17 12:32 35.918927 -94.518503 38 34954ft 455kts
24-Nov-17 12:33 36.002721 -94.417371 38 34950ft 455kts
24-Nov-17 12:34 36.076439 -94.328131 38 34939ft 455kts
24-Nov-17 12:35 36.165286 -94.220255 38 34925ft 455kts
24-Nov-17 12:36 36.254642 -94.110664 41 35071ft 457kts
24-Nov-17 12:37 36.341390 -93.996137 41 35079ft 458kts
24-Nov-17 12:38 36.428179 -93.881223 41 35076ft 457kts
24-Nov-17 12:39 36.514631 -93.766356 41 35009ft 458kts
24-Nov-17 12:40 36.601470 -93.650560 41 34895ft 457kts
24-Nov-17 12:41 36.688053 -93.534700 41 34901ft 458kts
24-Nov-17 12:42 36.774641 -93.418416 41 34911ft 458kts
24-Nov-17 12:43 36.860574 -93.302602 41 34853ft 458kts
24-Nov-17 12:44 36.946747 -93.186054 41 34848ft 458kts
24-Nov-17 12:45 37.032960 -93.069029 41 34846ft 459kts
24-Nov-17 12:46 37.119076 -92.951716 41 34857ft 459kts
24-Nov-17 12:47 37.205397 -92.833694 41 34868ft 460kts
24-Nov-17 12:48 37.291328 -92.715775 42 34842ft 460kts
24-Nov-17 12:49 37.377388 -92.597249 42 34837ft 460kts
24-Nov-17 12:50 37.463449 -92.478286 42 34828ft 460kts
24-Nov-17 12:51 37.549368 -92.359076 42 34823ft 460kts
24-Nov-17 12:52 37.634577 -92.240417 42 34817ft 460kts
24-Nov-17 12:53 37.720030 -92.120980 42 34819ft 460kts
24-Nov-17 12:54 37.805156 -92.001556 42 34826ft 460kts
24-Nov-17 12:55 37.890425 -91.881483 42 34832ft 461kts
24-Nov-17 12:56 37.976054 -91.760457 42 34799ft 463kts
24-Nov-17 12:57 38.062429 -91.637925 42 34785ft 474kts
24-Nov-17 12:58 38.147246 -91.517103 43 34902ft 476kts
24-Nov-17 12:59 38.235134 -91.391448 42 34832ft 480kts
24-Nov-17 13:00 38.322568 -91.265936 43 34817ft 479kts
24-Nov-17 13:01 38.410695 -91.138934 43 34798ft 479kts
24-Nov-17 13:02 38.498498 -91.011891 43 34782ft 478kts
24-Nov-17 13:03 38.585805 -90.885066 43 34804ft 478kts
24-Nov-17 13:04 38.658694 -90.778796 43 34802ft 477kts
24-Nov-17 13:05 38.760401 -90.629905 43 34805ft 477kts
24-Nov-17 13:06 38.832380 -90.524092 43 34862ft 473kts
24-Nov-17 13:07 38.922757 -90.363714 50 34800ft 481kts
24-Nov-17 13:08 38.984505 -90.245203 51 34812ft 481kts
24-Nov-17 13:09 39.070512 -90.079401 51 34805ft 482kts
24-Nov-17 13:10 39.123114 -89.977579 51 34815ft 483kts
24-Nov-17 13:11 39.197300 -89.833413 51 34825ft 483kts
24-Nov-17 13:12 39.271035 -89.689482 51 34826ft 483kts
24-Nov-17 13:13 39.344690 -89.545056 51 34822ft 483kts
24-Nov-17 13:14 39.418127 -89.400399 51 34816ft 483kts
24-Nov-17 13:15 39.491278 -89.255648 51 34777ft 483kts
24-Nov-17 13:16 39.564185 -89.110723 51 34771ft 483kts
24-Nov-17 13:17 39.637314 -88.964691 51 34779ft 483kts
24-Nov-17 13:18 39.710106 -88.818654 51 34787ft 484kts
24-Nov-17 13:19 39.782989 -88.671755 51 34790ft 484kts
24-Nov-17 13:20 39.855325 -88.525278 51 34792ft 484kts
24-Nov-17 13:21 39.927730 -88.377976 51 34787ft 485kts
24-Nov-17 13:22 39.998208 -88.233930 52 34780ft 485kts
24-Nov-17 13:23 40.070265 -88.085952 53 34930ft 483kts
24-Nov-17 13:24 40.114981 -87.993778 53 35513ft 480kts
24-Nov-17 13:25 40.186644 -87.845489 53 36245ft 479kts
24-Nov-17 13:26 40.257423 -87.698351 53 36782ft 480kts
24-Nov-17 13:27 40.327824 -87.551291 53 36783ft 479kts
24-Nov-17 13:28 40.398224 -87.403530 53 36782ft 479kts
24-Nov-17 13:29 40.467812 -87.256777 54 36829ft 479kts
24-Nov-17 13:30 40.537943 -87.108176 54 36824ft 479kts
24-Nov-17 13:31 40.605000 -86.957858 56 36832ft 481kts
24-Nov-17 13:32 40.671320 -86.805655 56 36811ft 481kts
24-Nov-17 13:33 40.737733 -86.652467 56 36815ft 482kts
24-Nov-17 13:34 40.803643 -86.499676 56 36847ft 483kts
24-Nov-17 13:35 40.869252 -86.346816 57 36793ft 485kts
24-Nov-17 13:36 40.931531 -86.200981 57 36834ft 484kts
24-Nov-17 13:37 40.997411 -86.045953 57 36817ft 483kts
24-Nov-17 13:38 41.062415 -85.892193 57 36807ft 483kts
24-Nov-17 13:39 41.123731 -85.746440 57 36803ft 483kts
24-Nov-17 13:40 41.188223 -85.592361 57 36811ft 483kts
24-Nov-17 13:41 41.253022 -85.436750 57 36842ft 484kts
24-Nov-17 13:42 41.317034 -85.282221 58 36839ft 483kts
24-Nov-17 13:43 41.380931 -85.127165 58 36833ft 483kts
24-Nov-17 13:44 41.445150 -84.970507 58 36832ft 483kts
24-Nov-17 13:45 41.509107 -84.813665 58 36836ft 483kts
24-Nov-17 13:46 41.572652 -84.656997 58 36841ft 484kts
24-Nov-17 13:47 41.635798 -84.500487 58 36815ft 484kts
24-Nov-17 13:48 41.698630 -84.343922 58 36841ft 484kts
24-Nov-17 13:49 41.760668 -84.188506 58 36834ft 483kts
24-Nov-17 13:50 41.819917 -84.039312 58 36833ft 483kts
24-Nov-17 13:51 41.879617 -83.888208 58 36810ft 484kts
24-Nov-17 13:52 41.938757 -83.737734 58 36837ft 484kts
24-Nov-17 13:53 41.998898 -83.583917 58 36843ft 484kts
24-Nov-17 13:54 42.062708 -83.430305 49 36845ft 480kts
24-Nov-17 13:55 42.125768 -83.313156 50 36841ft 480kts
24-Nov-17 13:56 42.197441 -83.179319 50 36829ft 479kts
24-Nov-17 13:57 42.272487 -83.038549 50 36807ft 479kts
24-Nov-17 13:58 42.348924 -82.894533 49 36752ft 488kts
24-Nov-17 13:59 42.426857 -82.746973 49 36796ft 501kts
24-Nov-17 14:00 42.506678 -82.594996 49 36794ft 502kts
24-Nov-17 14:01 42.586279 -82.442706 49 36795ft 502kts
24-Nov-17 14:02 42.663421 -82.294393 50 36787ft 502kts
24-Nov-17 14:03 42.744792 -82.142351 48 36779ft 500kts
24-Nov-17 14:04 42.822692 -81.986199 56 36783ft 506kts
24-Nov-17 14:05 42.891317 -81.819914 56 36404ft 507kts
24-Nov-17 14:06 42.960014 -81.652646 56 33689ft 516kts
24-Nov-17 14:07 43.029511 -81.482361 56 31327ft 512kts
24-Nov-17 14:08 43.089435 -81.333485 58 29811ft 493kts
24-Nov-17 14:09 43.141927 -81.198723 59 28893ft 462kts
24-Nov-17 14:10 43.182357 -81.094964 60 27471ft 455kts
24-Nov-17 14:11 43.238847 -80.949358 59 25086ft 456kts
24-Nov-17 14:12 43.296862 -80.798865 59 23190ft 440kts
24-Nov-17 14:13 43.352930 -80.652815 59 21218ft 428kts
24-Nov-17 14:14 43.407184 -80.510695 58 19182ft 419kts
24-Nov-17 14:15 43.459336 -80.371313 63 17347ft 407kts
24-Nov-17 14:16 43.492690 -80.252399 66 15697ft 401kts
24-Nov-17 14:17 43.529741 -80.116579 67 14644ft 368kts
24-Nov-17 14:18 43.562453 -79.993596 68 13320ft 354kts
24-Nov-17 14:19 43.590653 -79.888252 64 11903ft 354kts
24-Nov-17 14:20 43.658890 -79.809145 30 10770ft 325kts
24-Nov-17 14:21 43.731704 -79.738934 32 8262ft 319kts
24-Nov-17 14:22 43.793067 -79.658046 47 5801ft 299kts
24-Nov-17 14:23 43.844562 -79.582654 47 4701ft 248kts
24-Nov-17 14:24 43.857476 -79.505783 135 3255ft 222kts
24-Nov-17 14:25 43.812993 -79.453536 162 2511ft 197kts
24-Nov-17 14:26 43.784066 -79.489679 250 2441ft 146kts
24-Nov-17 14:27 43.765935 -79.531941 234 2070ft 130kts
24-Nov-17 14:28 43.745917 -79.564409 213 1849ft 130kts
24-Nov-17 14:29 43.719746 -79.595761 226 1310ft 130kts
24-Nov-17 14:30 43.697674 -79.629836 224 705ft 123kts
24-Nov-17 14:31 43.686826 -79.645658 225 554ft 0kts

Navigation Log

Ident Type
Flight plan parsing failed, navigation log unavailable